createdAt,value
2023-01-13T00:00:20.114Z,59.64
2023-01-13T00:01:20.092Z,59.85
2023-01-13T00:02:20.154Z,60.33
2023-01-13T00:03:20.080Z,60.41
2023-01-13T00:04:20.024Z,60.54
2023-01-13T00:05:20.037Z,60.81
2023-01-13T00:06:20.011Z,61.07
2023-01-13T00:07:20.010Z,61.21
2023-01-13T00:08:20.000Z,61.21
2023-01-13T00:09:19.973Z,61.48
2023-01-13T00:10:19.976Z,61.48
2023-01-13T00:11:19.957Z,61.39
2023-01-13T00:12:19.919Z,61.66
2023-01-13T00:13:19.932Z,61.79
2023-01-13T00:14:19.890Z,61.79
2023-01-13T00:15:19.912Z,61.70
2023-01-13T00:16:19.907Z,62.07
2023-01-13T00:17:19.864Z,61.89
2023-01-13T00:18:19.850Z,62.21
2023-01-13T00:19:19.844Z,62.16
2023-01-13T00:20:19.837Z,62.35
2023-01-13T00:21:19.801Z,62.67
2023-01-13T00:22:19.811Z,62.63
2023-01-13T00:23:19.798Z,62.96
2023-01-13T00:24:19.758Z,62.72
2023-01-13T00:25:19.747Z,62.86
2023-01-13T00:26:19.769Z,63.34
2023-01-13T00:27:19.769Z,63.48
2023-01-13T00:28:19.712Z,63.48
2023-01-13T00:29:19.706Z,63.82
2023-01-13T00:30:19.704Z,63.92
2023-01-13T00:31:19.786Z,63.92
2023-01-13T00:32:19.669Z,64.11
2023-01-13T00:33:19.661Z,64.56
2023-01-13T00:34:19.674Z,64.86
2023-01-13T00:35:19.636Z,65.16
2023-01-13T00:36:19.639Z,65.67
2023-01-13T00:37:19.622Z,65.98
2023-01-13T00:38:19.590Z,66.51
2023-01-13T00:39:19.600Z,66.72
2023-01-13T00:40:19.550Z,66.99
2023-01-13T00:41:19.570Z,67.53
2023-01-13T00:42:19.524Z,67.58
2023-01-13T00:43:19.513Z,68.07
2023-01-13T00:44:19.545Z,68.41
2023-01-13T00:45:19.499Z,68.97
2023-01-13T00:46:19.604Z,69.31
2023-01-13T00:47:19.462Z,70.01
2023-01-13T00:48:19.451Z,70.01
2023-01-13T00:49:19.478Z,70.42
2023-01-13T00:50:19.433Z,70.72
2023-01-13T00:51:19.427Z,70.84
2023-01-13T00:52:19.430Z,71.32
2023-01-13T00:53:19.386Z,71.32
2023-01-13T00:54:19.356Z,71.32
2023-01-13T00:55:19.354Z,71.62
2023-01-13T00:56:22.096Z,72.06
2023-01-13T00:57:19.346Z,72.24
2023-01-13T00:58:19.305Z,72.49
2023-01-13T00:59:19.300Z,73.00
2023-01-13T01:00:19.285Z,73.13
2023-01-13T01:01:19.404Z,73.45
2023-01-13T01:02:19.289Z,73.77
2023-01-13T01:03:19.238Z,73.90
2023-01-13T01:04:19.233Z,74.29
2023-01-13T01:05:19.207Z,74.43
2023-01-13T01:06:19.212Z,74.62
2023-01-13T01:07:19.210Z,74.76
2023-01-13T01:08:19.212Z,75.03
2023-01-13T01:09:19.172Z,75.36
2023-01-13T01:10:19.169Z,75.57
2023-01-13T01:11:19.149Z,75.98
2023-01-13T01:12:19.120Z,76.32
2023-01-13T01:13:19.108Z,76.96
2023-01-13T01:14:19.116Z,77.60
2023-01-13T01:15:19.082Z,78.10
2023-01-13T01:16:19.120Z,78.84
2023-01-13T01:17:19.084Z,79.29
2023-01-13T01:18:19.068Z,79.82
2023-01-13T01:19:19.045Z,80.12
2023-01-13T01:20:19.042Z,80.51
2023-01-13T01:21:19.006Z,81.29
2023-01-13T01:22:19.005Z,81.61
2023-01-13T01:23:18.988Z,82.57
2023-01-13T01:24:18.990Z,83.23
2023-01-13T01:25:19.010Z,83.64
2023-01-13T01:26:18.944Z,84.40
2023-01-13T01:27:18.967Z,84.92
2023-01-13T01:28:18.924Z,86.23
2023-01-13T01:29:18.928Z,87.03
2023-01-13T01:30:18.897Z,87.85
2023-01-13T01:31:18.949Z,88.04
2023-01-13T01:32:18.886Z,89.26
2023-01-13T01:33:18.861Z,89.83
2023-01-13T01:34:18.864Z,90.81
2023-01-13T01:35:18.820Z,91.40
2023-01-13T01:36:18.843Z,92.41
2023-01-13T01:37:18.789Z,92.72
2023-01-13T01:38:18.815Z,93.34
2023-01-13T01:39:18.799Z,94.28
2023-01-13T01:40:18.787Z,94.92
2023-01-13T01:41:18.767Z,95.57
2023-01-13T01:42:18.747Z,94.10
2023-01-13T01:43:18.753Z,94.00
2023-01-13T01:44:18.694Z,95.06
2023-01-13T01:45:18.690Z,95.61
2023-01-13T01:46:18.708Z,95.93
2023-01-13T01:47:18.688Z,96.76
2023-01-13T01:48:18.658Z,96.54
2023-01-13T01:49:18.683Z,97.10
2023-01-13T01:50:18.648Z,97.84
2023-01-13T01:51:18.634Z,98.59
2023-01-13T01:52:18.635Z,99.23
2023-01-13T01:53:18.611Z,99.64
2023-01-13T01:54:18.589Z,100.48
2023-01-13T01:55:18.604Z,101.15
2023-01-13T01:56:18.538Z,102.26
2023-01-13T01:57:18.536Z,103.71
2023-01-13T01:58:18.512Z,105.61
2023-01-13T01:59:18.526Z,107.03
2023-01-13T02:00:18.492Z,110.05
2023-01-13T02:01:18.648Z,112.87
2023-01-13T02:02:18.476Z,114.65
2023-01-13T02:03:18.491Z,116.16
2023-01-13T02:04:18.464Z,117.46
2023-01-13T02:05:18.436Z,118.29
2023-01-13T02:06:18.443Z,118.54
2023-01-13T02:07:18.459Z,119.22
2023-01-13T02:08:18.413Z,120.42
2023-01-13T02:09:18.412Z,122.08
2023-01-13T02:10:18.361Z,123.62
2023-01-13T02:11:18.350Z,126.32
2023-01-13T02:12:18.351Z,129.04
2023-01-13T02:13:18.335Z,131.79
2023-01-13T02:14:18.322Z,132.73
2023-01-13T02:15:18.315Z,134.21
2023-01-13T02:16:18.322Z,136.18
2023-01-13T02:17:18.258Z,137.63
2023-01-13T02:18:18.321Z,139.82
2023-01-13T02:19:18.302Z,142.07
2023-01-13T02:20:18.275Z,143.53
2023-01-13T02:21:18.222Z,145.15
2023-01-13T02:22:18.194Z,146.54
2023-01-13T02:23:18.226Z,149.55
2023-01-13T02:24:18.179Z,151.31
2023-01-13T02:25:18.209Z,151.31
2023-01-13T02:26:18.184Z,153.11
2023-01-13T02:27:18.149Z,154.95
2023-01-13T02:28:18.117Z,157.42
2023-01-13T02:29:18.150Z,162.15
2023-01-13T02:30:18.134Z,164.21
2023-01-13T02:31:18.138Z,166.01
2023-01-13T02:32:18.056Z,166.83
2023-01-13T02:33:18.086Z,167.16
2023-01-13T02:34:18.070Z,166.50
2023-01-13T02:35:18.067Z,167.00
2023-01-13T02:36:18.075Z,165.51
2023-01-13T02:37:18.020Z,165.51
2023-01-13T02:38:17.984Z,165.19
2023-01-13T02:39:17.985Z,164.21
2023-01-13T02:40:17.970Z,163.41
2023-01-13T02:41:17.993Z,163.89
2023-01-13T02:42:17.989Z,163.10
2023-01-13T02:43:17.934Z,161.84
2023-01-13T02:44:17.893Z,161.68
2023-01-13T02:45:17.908Z,161.21
2023-01-13T02:46:17.894Z,160.13
2023-01-13T02:47:17.863Z,159.52
2023-01-13T02:48:17.857Z,159.52
2023-01-13T02:49:17.853Z,158.17
2023-01-13T02:50:17.834Z,158.17
2023-01-13T02:51:17.810Z,157.13
2023-01-13T02:52:17.839Z,157.13
2023-01-13T02:53:17.800Z,158.17
2023-01-13T02:54:17.836Z,159.98
2023-01-13T02:55:17.775Z,162.46
2023-01-13T02:56:17.779Z,164.86
2023-01-13T02:57:17.739Z,167.50
2023-01-13T02:58:17.761Z,168.68
2023-01-13T02:59:17.713Z,169.19
2023-01-13T03:00:17.714Z,168.68
2023-01-13T03:01:17.880Z,168.34
2023-01-13T03:02:17.897Z,168.34
2023-01-13T03:03:17.650Z,170.22
2023-01-13T03:04:17.682Z,171.62
2023-01-13T03:05:17.616Z,174.48
2023-01-13T03:06:17.596Z,179.34
2023-01-13T03:07:17.579Z,182.46
2023-01-13T03:08:17.629Z,185.90
2023-01-13T03:09:17.555Z,185.80
2023-01-13T03:10:17.549Z,186.43
2023-01-13T03:11:17.597Z,187.49
2023-01-13T03:12:17.554Z,188.46
2023-01-13T03:13:17.520Z,190.53
2023-01-13T03:14:17.528Z,194.12
2023-01-13T03:15:17.483Z,196.90
2023-01-13T03:16:17.503Z,196.79
2023-01-13T03:17:17.444Z,197.26
2023-01-13T03:18:17.452Z,197.85
2023-01-13T03:19:17.419Z,198.93
2023-01-13T03:20:17.421Z,200.87
2023-01-13T03:21:17.414Z,200.01
2023-01-13T03:22:17.403Z,200.62
2023-01-13T03:23:17.370Z,201.11
2023-01-13T03:24:17.363Z,201.85
2023-01-13T03:25:17.368Z,206.02
2023-01-13T03:26:17.383Z,209.43
2023-01-13T03:27:17.330Z,213.78
2023-01-13T03:28:17.349Z,216.02
2023-01-13T03:29:17.309Z,217.16
2023-01-13T03:30:17.302Z,217.88
2023-01-13T03:31:17.262Z,219.48
2023-01-13T03:32:17.253Z,220.50
2023-01-13T03:33:17.249Z,222.59
2023-01-13T03:34:17.240Z,224.10
2023-01-13T03:35:17.227Z,225.64
2023-01-13T03:36:17.234Z,225.49
2023-01-13T03:37:17.188Z,226.26
2023-01-13T03:38:17.215Z,226.73
2023-01-13T03:39:17.155Z,227.98
2023-01-13T03:40:17.172Z,230.21
2023-01-13T03:41:17.168Z,231.02
2023-01-13T03:42:17.137Z,233.31
2023-01-13T03:43:17.137Z,235.31
2023-01-13T03:44:17.112Z,235.99
2023-01-13T03:45:17.109Z,237.35
2023-01-13T03:46:17.163Z,237.86
2023-01-13T03:47:17.063Z,238.21
2023-01-13T03:48:17.051Z,235.82
2023-01-13T03:49:17.024Z,234.98
2023-01-13T03:50:17.039Z,234.98
2023-01-13T03:51:17.021Z,235.65
2023-01-13T03:52:17.010Z,237.86
2023-01-13T03:53:16.973Z,238.38
2023-01-13T03:54:16.962Z,238.90
2023-01-13T03:55:16.957Z,239.07
2023-01-13T03:56:16.938Z,240.64
2023-01-13T03:57:16.938Z,241.52
2023-01-13T03:58:16.988Z,243.49
2023-01-13T03:59:16.904Z,244.21
2023-01-13T04:00:16.904Z,245.12
2023-01-13T04:01:16.971Z,244.03
2023-01-13T04:02:16.930Z,243.85
2023-01-13T04:03:16.847Z,242.06
2023-01-13T04:04:16.833Z,240.82
2023-01-13T04:05:16.808Z,238.38
2023-01-13T04:06:16.845Z,236.16
2023-01-13T04:07:16.797Z,237.01
2023-01-13T04:08:16.857Z,238.72
2023-01-13T04:09:16.767Z,238.38
2023-01-13T04:10:16.760Z,240.12
2023-01-13T04:11:16.739Z,240.29
2023-01-13T04:12:16.723Z,239.77
2023-01-13T04:13:16.735Z,241.35
2023-01-13T04:14:16.723Z,243.13
2023-01-13T04:15:16.711Z,243.67
2023-01-13T04:16:16.697Z,243.13
2023-01-13T04:17:16.664Z,240.64
2023-01-13T04:18:16.672Z,241.17
2023-01-13T04:19:16.642Z,243.31
2023-01-13T04:20:16.619Z,244.57
2023-01-13T04:21:16.649Z,247.51
2023-01-13T04:22:16.609Z,249.39
2023-01-13T04:23:16.605Z,250.15
2023-01-13T04:24:16.580Z,250.53
2023-01-13T04:25:16.547Z,248.64
2023-01-13T04:26:16.548Z,247.14
2023-01-13T04:27:16.540Z,246.77
2023-01-13T04:28:16.511Z,245.67
2023-01-13T04:29:16.502Z,243.49
2023-01-13T04:30:16.501Z,244.39
2023-01-13T04:31:16.508Z,246.04
2023-01-13T04:32:16.499Z,247.89
2023-01-13T04:33:16.466Z,248.82
2023-01-13T04:34:16.431Z,249.77
2023-01-13T04:35:16.428Z,253.23
2023-01-13T04:36:16.431Z,256.58
2023-01-13T04:37:16.411Z,259.00
2023-01-13T04:38:16.401Z,261.05
2023-01-13T04:39:16.363Z,260.64
2023-01-13T04:40:16.380Z,258.59
2023-01-13T04:41:16.350Z,255.98
2023-01-13T04:42:16.326Z,252.84
2023-01-13T04:43:16.340Z,249.58
2023-01-13T04:44:16.293Z,246.96
2023-01-13T04:45:16.315Z,242.06
2023-01-13T04:46:16.283Z,238.55
2023-01-13T04:47:16.276Z,235.15
2023-01-13T04:48:16.254Z,231.51
2023-01-13T04:49:16.235Z,228.62
2023-01-13T04:50:16.227Z,225.79
2023-01-13T04:51:16.209Z,224.26
2023-01-13T04:52:16.191Z,222.29
2023-01-13T04:53:16.201Z,220.36
2023-01-13T04:54:16.217Z,219.91
2023-01-13T04:55:16.177Z,219.91
2023-01-13T04:56:16.164Z,221.69
2023-01-13T04:57:16.160Z,223.04
2023-01-13T04:58:16.108Z,224.41
2023-01-13T04:59:16.127Z,227.35
2023-01-13T05:00:16.092Z,228.30
2023-01-13T05:01:16.228Z,230.70
2023-01-13T05:02:16.127Z,232.82
2023-01-13T05:03:16.073Z,236.84
2023-01-13T05:04:16.039Z,239.77
2023-01-13T05:05:16.059Z,244.03
2023-01-13T05:06:16.014Z,249.01
2023-01-13T05:07:16.033Z,254.40
2023-01-13T05:08:16.000Z,257.58
2023-01-13T05:09:15.982Z,259.20
2023-01-13T05:10:15.963Z,261.67
2023-01-13T05:11:15.952Z,263.14
2023-01-13T05:12:15.970Z,264.41
2023-01-13T05:13:15.919Z,265.69
2023-01-13T05:14:15.928Z,267.41
2023-01-13T05:15:15.894Z,268.28
2023-01-13T05:16:15.913Z,271.15
2023-01-13T05:17:15.884Z,273.86
2023-01-13T05:18:15.857Z,276.16
2023-01-13T05:19:15.865Z,276.62
2023-01-13T05:20:15.833Z,276.85
2023-01-13T05:21:15.823Z,276.16
2023-01-13T05:22:15.822Z,276.39
2023-01-13T05:23:15.803Z,276.16
2023-01-13T05:24:15.780Z,276.62
2023-01-13T05:25:15.763Z,275.92
2023-01-13T05:26:15.743Z,274.55
2023-01-13T05:27:15.744Z,270.93
2023-01-13T05:28:15.722Z,266.98
2023-01-13T05:29:15.715Z,263.77
2023-01-13T05:30:15.687Z,261.47
2023-01-13T05:31:15.725Z,260.64
2023-01-13T05:32:15.677Z,258.80
2023-01-13T05:33:15.647Z,257.58
2023-01-13T05:34:15.649Z,259.00
2023-01-13T05:35:15.646Z,258.19
2023-01-13T05:36:15.613Z,258.59
2023-01-13T05:37:15.593Z,257.98
2023-01-13T05:38:15.585Z,258.59
2023-01-13T05:39:15.572Z,258.19
2023-01-13T05:40:15.568Z,254.60
2023-01-13T05:41:15.542Z,252.26
2023-01-13T05:42:15.528Z,251.10
2023-01-13T05:43:15.525Z,250.91
2023-01-13T05:44:15.518Z,251.48
2023-01-13T05:45:15.514Z,251.48
2023-01-13T05:46:15.535Z,250.15
2023-01-13T05:47:15.461Z,248.26
2023-01-13T05:48:15.488Z,247.51
2023-01-13T05:49:15.458Z,245.49
2023-01-13T05:50:15.435Z,243.13
2023-01-13T05:51:15.413Z,242.77
2023-01-13T05:52:15.413Z,242.41
2023-01-13T05:53:15.413Z,242.59
2023-01-13T05:54:15.403Z,246.04
2023-01-13T05:55:15.382Z,248.07
2023-01-13T05:56:15.336Z,248.26
2023-01-13T05:57:15.332Z,246.96
2023-01-13T05:58:15.333Z,245.67
2023-01-13T05:59:15.323Z,242.41
2023-01-13T06:00:15.282Z,241.52
2023-01-13T06:01:15.349Z,240.99
2023-01-13T06:02:15.264Z,238.55
2023-01-13T06:03:15.326Z,237.18
2023-01-13T06:04:15.276Z,233.81
2023-01-13T06:05:15.250Z,232.49
2023-01-13T06:06:15.224Z,230.38
2023-01-13T06:07:15.206Z,226.73
2023-01-13T06:08:15.184Z,222.74
2023-01-13T06:09:15.171Z,220.21
2023-01-13T06:10:15.189Z,219.33
2023-01-13T06:11:15.160Z,217.73
2023-01-13T06:12:15.140Z,218.17
2023-01-13T06:13:15.144Z,219.91
2023-01-13T06:14:15.104Z,220.50
2023-01-13T06:15:15.115Z,220.95
2023-01-13T06:16:15.103Z,219.91
2023-01-13T06:17:15.091Z,220.21
2023-01-13T06:18:15.051Z,219.91
2023-01-13T06:19:15.078Z,219.48
2023-01-13T06:20:15.027Z,218.46
2023-01-13T06:21:15.015Z,217.88
2023-01-13T06:22:14.991Z,217.30
2023-01-13T06:23:14.994Z,216.16
2023-01-13T06:24:14.980Z,215.46
2023-01-13T06:25:14.957Z,215.03
2023-01-13T06:26:14.941Z,216.30
2023-01-13T06:27:14.956Z,216.02
2023-01-13T06:28:14.941Z,215.31
2023-01-13T06:29:14.945Z,215.88
2023-01-13T06:30:14.901Z,216.87
2023-01-13T06:31:14.911Z,217.88
2023-01-13T06:32:14.889Z,220.65
2023-01-13T06:33:14.871Z,223.95
2023-01-13T06:34:14.854Z,228.14
2023-01-13T06:35:14.849Z,231.18
2023-01-13T06:36:14.837Z,235.31
2023-01-13T06:37:14.821Z,240.47
2023-01-13T06:38:14.829Z,244.21
2023-01-13T06:39:14.930Z,246.40
2023-01-13T06:40:14.754Z,249.96
2023-01-13T06:41:14.799Z,253.62
2023-01-13T06:42:14.741Z,257.98
2023-01-13T06:43:16.363Z,259.41
2023-01-13T06:44:14.710Z,261.05
2023-01-13T06:45:14.730Z,260.85
2023-01-13T06:46:14.750Z,261.05
2023-01-13T06:47:14.682Z,260.43
2023-01-13T06:48:14.674Z,258.39
2023-01-13T06:49:14.655Z,254.20
2023-01-13T06:50:14.696Z,249.77
2023-01-13T06:51:14.630Z,244.21
2023-01-13T06:52:14.601Z,238.21
2023-01-13T06:53:14.617Z,232.16
2023-01-13T06:54:14.582Z,226.10
2023-01-13T06:55:14.570Z,219.62
2023-01-13T06:56:14.554Z,212.67
2023-01-13T06:57:14.565Z,206.80
2023-01-13T06:58:14.518Z,200.14
2023-01-13T06:59:14.546Z,195.27
2023-01-13T07:00:14.508Z,190.42
2023-01-13T07:01:14.687Z,186.73
2023-01-13T07:02:14.605Z,182.66
2023-01-13T07:03:14.473Z,178.19
2023-01-13T07:04:14.436Z,176.50
2023-01-13T07:05:14.454Z,175.39
2023-01-13T07:06:14.438Z,176.32
2023-01-13T07:07:14.423Z,176.69
2023-01-13T07:08:14.383Z,177.62
2023-01-13T07:09:14.403Z,181.28
2023-01-13T07:10:14.375Z,184.27
2023-01-13T07:11:14.351Z,186.64
2023-01-13T07:12:14.354Z,189.98
2023-01-13T07:13:14.439Z,188.89
2023-01-13T07:14:14.332Z,187.06
2023-01-13T07:15:14.311Z,185.70
2023-01-13T07:16:14.315Z,184.67
2023-01-13T07:17:14.320Z,182.86
2023-01-13T07:18:14.289Z,186.32
2023-01-13T07:19:14.305Z,204.99
2023-01-13T07:20:14.227Z,223.50
2023-01-13T07:21:14.242Z,235.48
2023-01-13T07:22:14.218Z,247.14
2023-01-13T07:23:14.255Z,258.39
2023-01-13T07:24:14.182Z,268.28
2023-01-13T07:25:14.205Z,278.26
2023-01-13T07:26:14.185Z,283.53
2023-01-13T07:27:14.183Z,289.76
2023-01-13T07:28:14.178Z,301.71
2023-01-13T07:29:14.161Z,311.11
2023-01-13T07:30:14.139Z,325.25
2023-01-13T07:31:14.222Z,338.97
2023-01-13T07:32:14.116Z,356.20
2023-01-13T07:33:14.086Z,372.73
2023-01-13T07:34:14.067Z,393.49
2023-01-13T07:35:14.065Z,413.68
2023-01-13T07:36:14.040Z,438.62
2023-01-13T07:37:14.058Z,460.02
2023-01-13T07:38:14.052Z,479.46
2023-01-13T07:39:14.014Z,491.43
2023-01-13T07:40:14.016Z,503.63
2023-01-13T07:41:13.954Z,512.50
2023-01-13T07:42:13.942Z,523.73
2023-01-13T07:43:13.967Z,534.18
2023-01-13T07:44:13.967Z,541.09
2023-01-13T07:45:13.912Z,548.63
2023-01-13T07:46:13.912Z,555.46
2023-01-13T07:47:13.888Z,555.92
2023-01-13T07:48:13.855Z,555.46
2023-01-13T07:49:13.860Z,555.00
2023-01-13T07:50:13.837Z,560.11
2023-01-13T07:51:13.834Z,561.52
2023-01-13T07:52:13.859Z,555.92
2023-01-13T07:53:13.800Z,555.00
2023-01-13T07:54:13.788Z,553.62
2023-01-13T07:55:13.768Z,552.25
2023-01-13T07:56:13.764Z,546.84
2023-01-13T07:57:13.745Z,545.95
2023-01-13T07:58:13.739Z,544.17
2023-01-13T07:59:13.730Z,546.39
2023-01-13T08:00:13.712Z,540.65
2023-01-13T08:01:13.866Z,540.22
2023-01-13T08:02:13.816Z,541.09
2023-01-13T08:03:13.673Z,543.73
2023-01-13T08:04:13.656Z,542.85
2023-01-13T08:05:13.658Z,548.63
2023-01-13T08:06:13.617Z,550.44
2023-01-13T08:07:13.627Z,550.44
2023-01-13T08:08:13.604Z,549.53
2023-01-13T08:09:13.588Z,545.50
2023-01-13T08:10:13.576Z,539.78
2023-01-13T08:11:13.582Z,530.79
2023-01-13T08:12:13.559Z,524.55
2023-01-13T08:13:13.546Z,518.86
2023-01-13T08:14:13.510Z,519.67
2023-01-13T08:15:13.542Z,513.68
2023-01-13T08:16:13.578Z,510.16
2023-01-13T08:17:13.514Z,505.15
2023-01-13T08:18:13.503Z,500.25
2023-01-13T08:19:13.454Z,493.61
2023-01-13T08:20:13.467Z,491.07
2023-01-13T08:21:13.446Z,488.21
2023-01-13T08:22:13.434Z,484.67
2023-01-13T08:23:14.356Z,478.78
2023-01-13T08:24:13.392Z,469.38
2023-01-13T08:25:13.395Z,466.43
2023-01-13T08:26:13.380Z,459.39
2023-01-13T08:27:13.424Z,454.71
2023-01-13T08:28:13.536Z,447.71
2023-01-13T08:29:15.054Z,438.33
2023-01-13T08:30:13.314Z,432.10
2023-01-13T08:31:13.403Z,422.29
2023-01-13T08:32:13.295Z,413.17
2023-01-13T08:33:13.325Z,402.00
2023-01-13T08:34:13.264Z,390.28
2023-01-13T08:35:13.256Z,382.69
2023-01-13T08:36:13.257Z,374.42
2023-01-13T08:37:13.290Z,372.31
2023-01-13T08:38:13.245Z,368.97
2023-01-13T08:39:13.185Z,362.87
2023-01-13T08:40:13.172Z,360.49
2023-01-13T08:41:13.158Z,360.89
2023-01-13T08:42:13.167Z,357.36
2023-01-13T08:43:13.189Z,355.43
2023-01-13T08:44:13.145Z,355.05
2023-01-13T08:45:13.110Z,355.82
2023-01-13T08:46:13.154Z,356.97
2023-01-13T08:47:13.901Z,359.70
2023-01-13T08:48:13.090Z,362.08
2023-01-13T08:49:13.054Z,366.92
2023-01-13T08:50:13.106Z,371.05
2023-01-13T08:51:13.060Z,374.85
2023-01-13T08:52:13.043Z,384.89
2023-01-13T08:53:13.025Z,389.60
2023-01-13T08:54:13.016Z,396.99
2023-01-13T08:55:12.985Z,406.64
2023-01-13T08:56:13.018Z,409.88
2023-01-13T08:57:12.995Z,411.64
2023-01-13T08:58:16.423Z,411.89
2023-01-13T08:59:12.938Z,413.93
2023-01-13T09:00:12.928Z,415.73
2023-01-13T09:01:12.998Z,421.23
2023-01-13T09:02:13.035Z,425.51
2023-01-13T09:03:12.903Z,422.02
2023-01-13T09:04:12.912Z,426.60
2023-01-13T09:05:12.895Z,430.71
2023-01-13T09:06:12.832Z,429.61
2023-01-13T09:07:12.844Z,433.22
2023-01-13T09:08:12.846Z,439.19
2023-01-13T09:09:12.792Z,440.06
2023-01-13T09:10:12.786Z,443.27
2023-01-13T09:11:12.810Z,441.51
2023-01-13T09:12:12.774Z,440.64
2023-01-13T09:13:12.921Z,439.77
2023-01-13T09:14:12.731Z,442.09
2023-01-13T09:15:12.735Z,441.80
2023-01-13T09:16:12.769Z,434.91
2023-01-13T09:17:12.697Z,432.66
2023-01-13T09:18:12.820Z,429.33
2023-01-13T09:19:12.692Z,421.23
2023-01-13T09:20:12.647Z,413.93
2023-01-13T09:21:12.642Z,405.16
2023-01-13T09:22:12.669Z,401.76
2023-01-13T09:23:12.647Z,397.46
2023-01-13T09:24:12.611Z,394.65
2023-01-13T09:25:12.610Z,388.24
2023-01-13T09:26:12.602Z,387.12
2023-01-13T09:27:12.579Z,383.79
2023-01-13T09:28:12.595Z,381.60
2023-01-13T09:29:12.544Z,374.85
2023-01-13T09:30:12.512Z,370.22
2023-01-13T09:31:12.551Z,371.05
2023-01-13T09:32:12.550Z,374.42
2023-01-13T09:33:12.464Z,386.00
2023-01-13T09:34:12.452Z,391.88
2023-01-13T09:35:12.438Z,392.57
2023-01-13T09:36:12.432Z,393.49
2023-01-13T09:37:12.417Z,388.47
2023-01-13T09:38:12.442Z,386.23
2023-01-13T09:39:12.442Z,380.08
2023-01-13T09:40:12.396Z,380.30
2023-01-13T09:41:12.359Z,382.26
2023-01-13T09:42:12.352Z,381.82
2023-01-13T09:43:12.332Z,377.43
2023-01-13T09:44:12.335Z,375.71
2023-01-13T09:45:12.311Z,373.58
2023-01-13T09:46:12.361Z,371.89
2023-01-13T09:47:14.118Z,379.87
2023-01-13T09:48:12.289Z,380.30
2023-01-13T09:49:12.286Z,376.57
2023-01-13T09:50:12.306Z,373.15
2023-01-13T09:51:12.356Z,371.47
2023-01-13T09:52:12.230Z,367.74
2023-01-13T09:53:12.201Z,366.10
2023-01-13T09:54:12.191Z,363.27
2023-01-13T09:55:12.191Z,358.53
2023-01-13T09:56:12.177Z,354.67
2023-01-13T09:57:12.168Z,351.64
2023-01-13T09:58:12.172Z,349.03
2023-01-13T09:59:12.150Z,349.03
2023-01-13T10:00:12.117Z,350.14
2023-01-13T10:01:12.173Z,350.52
2023-01-13T10:02:12.114Z,348.29
2023-01-13T10:03:12.091Z,347.56
2023-01-13T10:04:12.084Z,349.03
2023-01-13T10:05:12.066Z,349.40
2023-01-13T10:06:12.041Z,350.14
2023-01-13T10:07:12.043Z,349.40
2023-01-13T10:08:12.026Z,351.64
2023-01-13T10:09:12.022Z,353.90
2023-01-13T10:10:11.988Z,356.59
2023-01-13T10:11:11.983Z,357.36
2023-01-13T10:12:12.005Z,358.92
2023-01-13T10:13:11.956Z,360.49
2023-01-13T10:14:11.965Z,362.47
2023-01-13T10:15:11.944Z,366.51
2023-01-13T10:16:12.009Z,371.47
2023-01-13T10:17:11.920Z,373.15
2023-01-13T10:18:11.908Z,377.00
2023-01-13T10:19:11.915Z,382.47
2023-01-13T10:20:11.858Z,393.03
2023-01-13T10:21:11.894Z,402.73
2023-01-13T10:22:11.885Z,413.42
2023-01-13T10:23:11.822Z,421.76
2023-01-13T10:24:11.809Z,428.78
2023-01-13T10:25:11.813Z,437.18
2023-01-13T10:26:11.843Z,445.03
2023-01-13T10:27:11.786Z,455.33
2023-01-13T10:28:11.769Z,470.70
2023-01-13T10:29:11.734Z,487.14
2023-01-13T10:30:11.721Z,500.99
2023-01-13T10:31:11.739Z,507.45
2023-01-13T10:32:11.704Z,518.06
2023-01-13T10:33:11.711Z,524.97
2023-01-13T10:34:11.717Z,535.04
2023-01-13T10:35:11.692Z,542.85
2023-01-13T10:36:11.672Z,548.18
2023-01-13T10:37:11.634Z,552.71
2023-01-13T10:38:11.603Z,555.92
2023-01-13T10:39:11.591Z,560.58
2023-01-13T10:40:11.604Z,569.64
2023-01-13T10:41:11.589Z,582.53
2023-01-13T10:42:11.580Z,586.62
2023-01-13T10:43:11.588Z,594.96
2023-01-13T10:44:11.559Z,595.49
2023-01-13T10:45:11.547Z,603.54
2023-01-13T10:46:11.556Z,618.60
2023-01-13T10:47:11.516Z,622.05
2023-01-13T10:48:11.513Z,627.89
2023-01-13T10:49:11.480Z,638.07
2023-01-13T10:50:11.466Z,641.73
2023-01-13T10:51:11.468Z,654.92
2023-01-13T10:52:11.478Z,657.49
2023-01-13T10:53:11.433Z,664.68
2023-01-13T10:54:11.431Z,675.41
2023-01-13T10:55:11.396Z,676.78
2023-01-13T10:56:11.367Z,678.83
2023-01-13T10:57:11.383Z,680.21
2023-01-13T10:58:11.358Z,685.79
2023-01-13T10:59:11.325Z,695.05
2023-01-13T11:00:11.329Z,692.89
2023-01-13T11:01:11.350Z,693.61
2023-01-13T11:02:24.793Z,696.49
2023-01-13T11:03:11.280Z,703.08
2023-01-13T11:04:11.286Z,703.82
2023-01-13T11:05:11.320Z,707.54
2023-01-13T11:06:11.252Z,713.57
2023-01-13T11:07:11.232Z,731.51
2023-01-13T11:08:11.226Z,743.70
2023-01-13T11:09:11.538Z,747.02
2023-01-13T11:10:11.199Z,757.06
2023-01-13T11:11:11.164Z,763.97
2023-01-13T11:12:11.166Z,775.01
2023-01-13T11:13:11.247Z,779.52
2023-01-13T11:14:11.166Z,792.90
2023-01-13T11:15:11.112Z,801.43
2023-01-13T11:16:11.140Z,808.69
2023-01-13T11:17:11.547Z,815.09
2023-01-13T11:18:11.075Z,819.07
2023-01-13T11:19:11.085Z,825.63
2023-01-13T11:20:11.078Z,832.82
2023-01-13T11:21:11.083Z,842.24
2023-01-13T11:22:11.064Z,844.89
2023-01-13T11:23:11.020Z,860.63
2023-01-13T11:24:11.013Z,863.40
2023-01-13T11:25:10.986Z,880.42
2023-01-13T11:26:10.971Z,879.27
2023-01-13T11:27:10.966Z,889.77
2023-01-13T11:28:10.956Z,901.14
2023-01-13T11:29:10.941Z,917.81
2023-01-13T11:30:10.951Z,924.14
2023-01-13T11:31:10.933Z,924.78
2023-01-13T11:32:10.895Z,929.91
2023-01-13T11:33:10.878Z,945.66
2023-01-13T11:34:10.862Z,949.01
2023-01-13T11:35:10.874Z,952.38
2023-01-13T11:36:10.876Z,964.72
2023-01-13T11:37:10.837Z,978.10
2023-01-13T11:38:10.810Z,1001.49
2023-01-13T11:39:10.792Z,1005.25
2023-01-13T11:40:10.815Z,1015.92
2023-01-13T11:41:10.796Z,1026.82
2023-01-13T11:42:10.794Z,1038.76
2023-01-13T11:43:10.768Z,1050.16
2023-01-13T11:44:10.733Z,1068.58
2023-01-13T11:45:10.763Z,1093.88
2023-01-13T11:46:10.724Z,1114.81
2023-01-13T11:47:10.707Z,1142.37
2023-01-13T11:48:10.726Z,1149.23
2023-01-13T11:49:10.682Z,1166.23
2023-01-13T11:50:10.723Z,1170.31
2023-01-13T11:51:10.636Z,1182.70
2023-01-13T11:52:10.646Z,1217.07
2023-01-13T11:53:10.638Z,1240.74
2023-01-13T11:54:10.638Z,1267.74
2023-01-13T11:55:10.640Z,1300.97
2023-01-13T11:56:10.587Z,1332.01
2023-01-13T11:57:10.573Z,1361.79
2023-01-13T11:58:10.577Z,1370.14
2023-01-13T11:59:10.536Z,1378.60
2023-01-13T12:00:10.589Z,1381.44
2023-01-13T12:01:10.585Z,1375.77
2023-01-13T12:02:10.536Z,1371.55
2023-01-13T12:03:10.666Z,1385.73
2023-01-13T12:04:10.476Z,1397.29
2023-01-13T12:05:10.452Z,1403.14
2023-01-13T12:06:10.456Z,1395.83
2023-01-13T12:07:10.427Z,1422.51
2023-01-13T12:08:10.435Z,1439.31
2023-01-13T12:09:10.413Z,1461.29
2023-01-13T12:10:13.425Z,1469.30
2023-01-13T12:11:10.413Z,1482.30
2023-01-13T12:12:10.417Z,1512.42
2023-01-13T12:13:10.370Z,1535.82
2023-01-13T12:14:10.344Z,1530.55
2023-01-13T12:15:10.363Z,1492.20
2023-01-13T12:16:10.363Z,1498.88
2023-01-13T12:17:10.326Z,1495.54
2023-01-13T12:18:10.304Z,1509.01
2023-01-13T12:19:10.283Z,1506.46
2023-01-13T12:20:10.275Z,1534.94
2023-01-13T12:21:10.249Z,1547.34
2023-01-13T12:22:10.247Z,1578.33
2023-01-13T12:23:10.231Z,1622.28
2023-01-13T12:24:10.243Z,1643.16
2023-01-13T12:25:10.203Z,1664.60
2023-01-13T12:26:10.288Z,1670.82
2023-01-13T12:27:10.162Z,1700.51
2023-01-13T12:28:10.188Z,1689.79
2023-01-13T12:29:10.147Z,1701.59
2023-01-13T12:30:10.129Z,1719.05